Cotia, Brazil
Current Conditions -  °F | °C
As of 6:00 AM on Wednesday 22 Oct 2014 (Local Time) from SBSP Reporting Station
Overcast Overcast  
Wind Chill: 59°   Ceiling: 900
Heat Index: 59°   Visibility: 6mi
Dew Point: 54°   Wind: 10mph
Humidity: 82%   Direction: 140°SE
Pressure: 30.18"   Gusts: NA
Location:  23.6°S, 46.92°W
Report Text: SBSP 220800Z 14009KT 9999 OVC009 15/12 Q1022
Loading
Personal Weather Stations






























Interactive Weather Map
Tropical Storm Tracking
New forecast layout! Learn more

10-Day Weather Forecast

Advertisements
Track Severe Weather on mobile